sensor_id;sensor_type;location;lat;lon;timestamp;P1;durP1;ratioP1;P2;durP2;ratioP2
38224;SDS011;24025;48.138;11.428;2023-04-25T00:00:48;3.30;;;1.13;;
38224;SDS011;24025;48.138;11.428;2023-04-25T00:03:19;2.10;;;0.70;;
38224;SDS011;24025;48.138;11.428;2023-04-25T00:05:52;1.20;;;0.70;;
38224;SDS011;24025;48.138;11.428;2023-04-25T00:08:24;1.02;;;0.57;;
38224;SDS011;24025;48.138;11.428;2023-04-25T00:10:57;1.73;;;0.80;;
38224;SDS011;24025;48.138;11.428;2023-04-25T00:13:29;1.33;;;0.40;;
38224;SDS011;24025;48.138;11.428;2023-04-25T00:16:00;1.13;;;0.63;;
38224;SDS011;24025;48.138;11.428;2023-04-25T00:18:33;1.75;;;0.80;;
38224;SDS011;24025;48.138;11.428;2023-04-25T00:21:05;3.83;;;0.85;;
38224;SDS011;24025;48.138;11.428;2023-04-25T00:23:37;1.70;;;0.77;;
38224;SDS011;24025;48.138;11.428;2023-04-25T00:26:09;5.03;;;1.40;;
38224;SDS011;24025;48.138;11.428;2023-04-25T00:28:41;1.05;;;0.50;;
38224;SDS011;24025;48.138;11.428;2023-04-25T00:31:13;3.85;;;0.90;;
38224;SDS011;24025;48.138;11.428;2023-04-25T00:33:45;1.73;;;0.70;;
38224;SDS011;24025;48.138;11.428;2023-04-25T00:36:16;3.30;;;0.90;;
38224;SDS011;24025;48.138;11.428;2023-04-25T00:41:20;2.08;;;1.20;;
38224;SDS011;24025;48.138;11.428;2023-04-25T00:43:53;1.92;;;0.80;;
38224;SDS011;24025;48.138;11.428;2023-04-25T00:46:26;2.30;;;0.70;;
38224;SDS011;24025;48.138;11.428;2023-04-25T00:48:58;2.22;;;0.63;;
38224;SDS011;24025;48.138;11.428;2023-04-25T00:51:29;1.30;;;0.80;;
38224;SDS011;24025;48.138;11.428;2023-04-25T00:54:01;3.35;;;0.68;;
38224;SDS011;24025;48.138;11.428;2023-04-25T00:56:33;3.28;;;0.80;;
38224;SDS011;24025;48.138;11.428;2023-04-25T00:59:05;0.88;;;0.55;;
38224;SDS011;24025;48.138;11.428;2023-04-25T01:01:37;1.98;;;0.50;;
38224;SDS011;24025;48.138;11.428;2023-04-25T01:04:10;1.30;;;0.73;;
38224;SDS011;24025;48.138;11.428;2023-04-25T01:06:42;1.23;;;0.70;;
38224;SDS011;24025;48.138;11.428;2023-04-25T01:09:14;1.70;;;0.77;;
38224;SDS011;24025;48.138;11.428;2023-04-25T01:11:46;1.35;;;0.70;;
38224;SDS011;24025;48.138;11.428;2023-04-25T01:14:17;1.80;;;0.90;;
38224;SDS011;24025;48.138;11.428;2023-04-25T01:16:49;3.07;;;0.77;;
38224;SDS011;24025;48.138;11.428;2023-04-25T01:19:20;0.70;;;0.63;;
38224;SDS011;24025;48.138;11.428;2023-04-25T01:21:52;1.60;;;0.68;;
38224;SDS011;24025;48.138;11.428;2023-04-25T01:24:24;2.95;;;0.90;;
38224;SDS011;24025;48.138;11.428;2023-04-25T01:26:55;2.50;;;0.82;;
38224;SDS011;24025;48.138;11.428;2023-04-25T01:29:28;1.60;;;0.65;;
38224;SDS011;24025;48.138;11.428;2023-04-25T01:32:00;1.30;;;0.77;;
38224;SDS011;24025;48.138;11.428;2023-04-25T01:34:32;1.52;;;0.85;;
38224;SDS011;24025;48.138;11.428;2023-04-25T01:37:04;2.23;;;0.93;;
38224;SDS011;24025;48.138;11.428;2023-04-25T01:39:35;3.60;;;0.80;;
38224;SDS011;24025;48.138;11.428;2023-04-25T01:42:07;1.23;;;0.70;;
38224;SDS011;24025;48.138;11.428;2023-04-25T01:44:39;2.42;;;1.23;;
38224;SDS011;24025;48.138;11.428;2023-04-25T01:47:11;5.83;;;0.90;;
38224;SDS011;24025;48.138;11.428;2023-04-25T01:49:42;0.63;;;0.50;;
38224;SDS011;24025;48.138;11.428;2023-04-25T01:52:14;3.63;;;0.70;;
38224;SDS011;24025;48.138;11.428;2023-04-25T01:54:45;1.50;;;1.10;;
38224;SDS011;24025;48.138;11.428;2023-04-25T01:57:17;1.08;;;0.50;;
38224;SDS011;24025;48.138;11.428;2023-04-25T01:59:49;2.63;;;1.13;;
38224;SDS011;24025;48.138;11.428;2023-04-25T02:02:20;1.45;;;0.93;;
38224;SDS011;24025;48.138;11.428;2023-04-25T02:04:52;2.15;;;0.90;;
38224;SDS011;24025;48.138;11.428;2023-04-25T02:07:25;1.77;;;0.77;;
38224;SDS011;24025;48.138;11.428;2023-04-25T02:09:57;3.90;;;0.80;;
38224;SDS011;24025;48.138;11.428;2023-04-25T02:12:29;3.58;;;1.02;;
38224;SDS011;24025;48.138;11.428;2023-04-25T02:15:00;6.90;;;1.13;;
38224;SDS011;24025;48.138;11.428;2023-04-25T02:17:32;1.10;;;0.50;;
38224;SDS011;24025;48.138;11.428;2023-04-25T02:20:04;0.95;;;0.70;;
38224;SDS011;24025;48.138;11.428;2023-04-25T02:22:36;3.22;;;0.75;;
38224;SDS011;24025;48.138;11.428;2023-04-25T02:25:08;1.75;;;0.70;;
38224;SDS011;24025;48.138;11.428;2023-04-25T02:27:40;2.17;;;1.00;;
38224;SDS011;24025;48.138;11.428;2023-04-25T02:30:12;2.97;;;1.07;;
38224;SDS011;24025;48.138;11.428;2023-04-25T02:32:43;0.90;;;0.75;;
38224;SDS011;24025;48.138;11.428;2023-04-25T02:35:15;5.35;;;0.93;;
38224;SDS011;24025;48.138;11.428;2023-04-25T02:37:47;3.20;;;0.95;;
38224;SDS011;24025;48.138;11.428;2023-04-25T02:40:19;1.10;;;0.80;;
38224;SDS011;24025;48.138;11.428;2023-04-25T02:42:50;2.80;;;0.77;;
38224;SDS011;24025;48.138;11.428;2023-04-25T02:45:22;1.63;;;0.73;;
38224;SDS011;24025;48.138;11.428;2023-04-25T02:47:54;2.83;;;0.88;;
38224;SDS011;24025;48.138;11.428;2023-04-25T02:50:25;1.50;;;0.70;;
38224;SDS011;24025;48.138;11.428;2023-04-25T02:52:57;1.70;;;0.93;;
38224;SDS011;24025;48.138;11.428;2023-04-25T02:55:28;0.82;;;0.82;;
38224;SDS011;24025;48.138;11.428;2023-04-25T02:58:00;1.45;;;0.80;;
38224;SDS011;24025;48.138;11.428;2023-04-25T03:00:31;3.27;;;0.93;;
38224;SDS011;24025;48.138;11.428;2023-04-25T03:03:03;2.40;;;1.20;;
38224;SDS011;24025;48.138;11.428;2023-04-25T03:05:34;4.93;;;1.35;;
38224;SDS011;24025;48.138;11.428;2023-04-25T03:08:06;8.83;;;1.13;;
38224;SDS011;24025;48.138;11.428;2023-04-25T03:10:38;1.70;;;1.02;;
38224;SDS011;24025;48.138;11.428;2023-04-25T03:13:09;6.15;;;1.10;;
38224;SDS011;24025;48.138;11.428;2023-04-25T03:15:41;5.03;;;0.75;;
38224;SDS011;24025;48.138;11.428;2023-04-25T03:18:12;4.70;;;1.37;;
38224;SDS011;24025;48.138;11.428;2023-04-25T03:20:44;2.13;;;0.90;;
38224;SDS011;24025;48.138;11.428;2023-04-25T03:23:15;3.08;;;0.80;;
38224;SDS011;24025;48.138;11.428;2023-04-25T03:25:47;1.67;;;0.80;;
38224;SDS011;24025;48.138;11.428;2023-04-25T03:28:18;0.70;;;0.70;;
38224;SDS011;24025;48.138;11.428;2023-04-25T03:30:50;2.17;;;0.90;;
38224;SDS011;24025;48.138;11.428;2023-04-25T03:33:21;4.07;;;0.70;;
38224;SDS011;24025;48.138;11.428;2023-04-25T03:35:53;2.28;;;0.80;;
38224;SDS011;24025;48.138;11.428;2023-04-25T03:38:24;3.67;;;0.80;;
38224;SDS011;24025;48.138;11.428;2023-04-25T03:40:56;1.87;;;0.80;;
38224;SDS011;24025;48.138;11.428;2023-04-25T03:43:28;2.17;;;0.60;;
38224;SDS011;24025;48.138;11.428;2023-04-25T03:46:00;3.85;;;0.90;;
38224;SDS011;24025;48.138;11.428;2023-04-25T03:48:32;2.65;;;0.65;;
38224;SDS011;24025;48.138;11.428;2023-04-25T03:51:04;1.77;;;0.52;;
38224;SDS011;24025;48.138;11.428;2023-04-25T03:53:35;2.30;;;0.73;;
38224;SDS011;24025;48.138;11.428;2023-04-25T03:56:07;2.40;;;0.50;;
38224;SDS011;24025;48.138;11.428;2023-04-25T03:58:38;1.07;;;0.53;;
38224;SDS011;24025;48.138;11.428;2023-04-25T04:01:10;2.30;;;0.50;;
38224;SDS011;24025;48.138;11.428;2023-04-25T04:03:42;0.50;;;0.50;;
38224;SDS011;24025;48.138;11.428;2023-04-25T04:06:13;0.75;;;0.43;;
38224;SDS011;24025;48.138;11.428;2023-04-25T04:08:46;1.30;;;0.60;;
38224;SDS011;24025;48.138;11.428;2023-04-25T04:11:17;1.48;;;0.57;;
38224;SDS011;24025;48.138;11.428;2023-04-25T04:13:49;2.50;;;0.55;;
38224;SDS011;24025;48.138;11.428;2023-04-25T04:16:21;0.55;;;0.30;;
38224;SDS011;24025;48.138;11.428;2023-04-25T04:18:52;3.92;;;1.10;;
38224;SDS011;24025;48.138;11.428;2023-04-25T04:21:24;4.20;;;0.73;;
38224;SDS011;24025;48.138;11.428;2023-04-25T04:23:55;0.77;;;0.40;;
38224;SDS011;24025;48.138;11.428;2023-04-25T04:26:28;1.92;;;0.52;;
38224;SDS011;24025;48.138;11.428;2023-04-25T04:29:00;3.30;;;0.60;;
38224;SDS011;24025;48.138;11.428;2023-04-25T04:31:32;6.22;;;1.10;;
38224;SDS011;24025;48.138;11.428;2023-04-25T04:34:04;2.17;;;0.60;;
38224;SDS011;24025;48.138;11.428;2023-04-25T04:36:35;2.65;;;0.88;;
38224;SDS011;24025;48.138;11.428;2023-04-25T04:39:07;0.93;;;0.60;;
38224;SDS011;24025;48.138;11.428;2023-04-25T04:41:40;3.13;;;1.27;;
38224;SDS011;24025;48.138;11.428;2023-04-25T04:44:11;0.93;;;0.50;;
38224;SDS011;24025;48.138;11.428;2023-04-25T04:46:43;6.63;;;0.80;;
38224;SDS011;24025;48.138;11.428;2023-04-25T04:49:15;2.25;;;0.85;;
38224;SDS011;24025;48.138;11.428;2023-04-25T04:51:47;1.13;;;0.60;;
38224;SDS011;24025;48.138;11.428;2023-04-25T04:54:20;1.35;;;0.70;;
38224;SDS011;24025;48.138;11.428;2023-04-25T04:56:52;1.77;;;0.67;;
38224;SDS011;24025;48.138;11.428;2023-04-25T04:59:23;6.40;;;1.42;;
38224;SDS011;24025;48.138;11.428;2023-04-25T05:01:55;3.93;;;0.77;;
38224;SDS011;24025;48.138;11.428;2023-04-25T05:04:26;2.73;;;0.83;;
38224;SDS011;24025;48.138;11.428;2023-04-25T05:06:58;2.33;;;0.80;;
38224;SDS011;24025;48.138;11.428;2023-04-25T05:09:29;1.37;;;0.93;;
38224;SDS011;24025;48.138;11.428;2023-04-25T05:12:01;2.37;;;0.80;;
38224;SDS011;24025;48.138;11.428;2023-04-25T05:14:33;2.55;;;1.15;;
38224;SDS011;24025;48.138;11.428;2023-04-25T05:17:04;3.47;;;1.00;;
38224;SDS011;24025;48.138;11.428;2023-04-25T05:19:39;10.45;;;1.17;;
38224;SDS011;24025;48.138;11.428;2023-04-25T05:22:10;3.30;;;0.70;;
38224;SDS011;24025;48.138;11.428;2023-04-25T05:24:42;1.20;;;0.77;;
38224;SDS011;24025;48.138;11.428;2023-04-25T05:27:16;1.23;;;0.88;;
38224;SDS011;24025;48.138;11.428;2023-04-25T05:29:48;1.40;;;0.80;;
38224;SDS011;24025;48.138;11.428;2023-04-25T05:32:19;1.47;;;0.83;;
38224;SDS011;24025;48.138;11.428;2023-04-25T05:34:51;2.08;;;0.80;;
38224;SDS011;24025;48.138;11.428;2023-04-25T05:37:23;2.00;;;0.95;;
38224;SDS011;24025;48.138;11.428;2023-04-25T05:39:54;3.20;;;1.08;;
38224;SDS011;24025;48.138;11.428;2023-04-25T05:42:26;4.70;;;1.17;;
38224;SDS011;24025;48.138;11.428;2023-04-25T05:44:57;3.22;;;0.85;;
38224;SDS011;24025;48.138;11.428;2023-04-25T05:47:29;2.05;;;0.90;;
38224;SDS011;24025;48.138;11.428;2023-04-25T05:50:00;4.22;;;0.88;;
38224;SDS011;24025;48.138;11.428;2023-04-25T05:52:33;1.38;;;0.85;;
38224;SDS011;24025;48.138;11.428;2023-04-25T05:55:04;2.75;;;1.00;;
38224;SDS011;24025;48.138;11.428;2023-04-25T05:57:36;2.42;;;1.30;;
38224;SDS011;24025;48.138;11.428;2023-04-25T06:00:08;1.60;;;1.10;;
38224;SDS011;24025;48.138;11.428;2023-04-25T06:05:12;8.85;;;1.35;;
38224;SDS011;24025;48.138;11.428;2023-04-25T06:07:44;2.72;;;1.00;;
38224;SDS011;24025;48.138;11.428;2023-04-25T06:10:15;7.68;;;1.25;;
38224;SDS011;24025;48.138;11.428;2023-04-25T06:12:47;1.40;;;0.83;;
38224;SDS011;24025;48.138;11.428;2023-04-25T06:15:18;3.70;;;1.50;;
38224;SDS011;24025;48.138;11.428;2023-04-25T06:17:53;6.70;;;1.15;;
38224;SDS011;24025;48.138;11.428;2023-04-25T06:20:25;5.50;;;2.33;;
38224;SDS011;24025;48.138;11.428;2023-04-25T06:22:56;7.82;;;2.80;;
38224;SDS011;24025;48.138;11.428;2023-04-25T06:25:28;2.25;;;1.55;;
38224;SDS011;24025;48.138;11.428;2023-04-25T06:27:59;3.50;;;1.40;;
38224;SDS011;24025;48.138;11.428;2023-04-25T06:30:31;2.17;;;1.40;;
38224;SDS011;24025;48.138;11.428;2023-04-25T06:33:02;2.20;;;1.60;;
38224;SDS011;24025;48.138;11.428;2023-04-25T06:35:34;3.40;;;1.15;;
38224;SDS011;24025;48.138;11.428;2023-04-25T06:38:06;3.05;;;1.55;;
38224;SDS011;24025;48.138;11.428;2023-04-25T06:40:37;2.23;;;1.70;;
38224;SDS011;24025;48.138;11.428;2023-04-25T06:43:09;1.87;;;1.13;;
38224;SDS011;24025;48.138;11.428;2023-04-25T06:45:41;2.33;;;1.23;;
38224;SDS011;24025;48.138;11.428;2023-04-25T06:48:14;2.70;;;1.20;;
38224;SDS011;24025;48.138;11.428;2023-04-25T06:50:46;3.75;;;1.35;;
38224;SDS011;24025;48.138;11.428;2023-04-25T06:53:18;4.28;;;1.77;;
38224;SDS011;24025;48.138;11.428;2023-04-25T06:55:50;2.40;;;0.90;;
38224;SDS011;24025;48.138;11.428;2023-04-25T06:58:21;2.85;;;1.80;;
38224;SDS011;24025;48.138;11.428;2023-04-25T07:00:53;4.03;;;1.30;;
38224;SDS011;24025;48.138;11.428;2023-04-25T07:03:25;3.22;;;1.15;;
38224;SDS011;24025;48.138;11.428;2023-04-25T07:05:56;6.18;;;1.10;;
38224;SDS011;24025;48.138;11.428;2023-04-25T07:08:28;4.47;;;1.47;;
38224;SDS011;24025;48.138;11.428;2023-04-25T07:11:00;2.65;;;1.00;;
38224;SDS011;24025;48.138;11.428;2023-04-25T07:13:32;2.83;;;1.33;;
38224;SDS011;24025;48.138;11.428;2023-04-25T07:16:03;3.67;;;1.00;;
38224;SDS011;24025;48.138;11.428;2023-04-25T07:21:07;4.10;;;1.13;;
38224;SDS011;24025;48.138;11.428;2023-04-25T07:23:39;2.28;;;1.05;;
38224;SDS011;24025;48.138;11.428;2023-04-25T07:26:11;2.38;;;1.10;;
38224;SDS011;24025;48.138;11.428;2023-04-25T07:28:43;2.70;;;1.27;;
38224;SDS011;24025;48.138;11.428;2023-04-25T07:31:15;1.80;;;1.00;;
38224;SDS011;24025;48.138;11.428;2023-04-25T07:33:49;3.35;;;1.50;;
38224;SDS011;24025;48.138;11.428;2023-04-25T07:36:20;3.90;;;1.33;;
38224;SDS011;24025;48.138;11.428;2023-04-25T07:38:52;5.40;;;1.60;;
38224;SDS011;24025;48.138;11.428;2023-04-25T07:41:24;4.13;;;1.77;;
38224;SDS011;24025;48.138;11.428;2023-04-25T07:43:55;6.32;;;1.75;;
38224;SDS011;24025;48.138;11.428;2023-04-25T07:46:27;4.55;;;1.77;;
38224;SDS011;24025;48.138;11.428;2023-04-25T07:48:58;4.38;;;1.75;;
38224;SDS011;24025;48.138;11.428;2023-04-25T07:51:30;3.50;;;1.73;;
38224;SDS011;24025;48.138;11.428;2023-04-25T07:56:34;6.18;;;1.90;;
38224;SDS011;24025;48.138;11.428;2023-04-25T07:59:22;5.95;;;1.77;;
38224;SDS011;24025;48.138;11.428;2023-04-25T08:01:53;4.05;;;1.65;;
38224;SDS011;24025;48.138;11.428;2023-04-25T08:04:25;3.40;;;1.55;;
38224;SDS011;24025;48.138;11.428;2023-04-25T08:06:57;4.80;;;1.73;;
38224;SDS011;24025;48.138;11.428;2023-04-25T08:09:29;4.03;;;1.90;;
38224;SDS011;24025;48.138;11.428;2023-04-25T08:12:04;2.85;;;1.42;;
38224;SDS011;24025;48.138;11.428;2023-04-25T08:14:36;2.60;;;1.55;;
38224;SDS011;24025;48.138;11.428;2023-04-25T08:17:09;3.58;;;1.45;;
38224;SDS011;24025;48.138;11.428;2023-04-25T08:22:12;6.15;;;1.67;;
38224;SDS011;24025;48.138;11.428;2023-04-25T08:24:43;2.75;;;1.33;;
38224;SDS011;24025;48.138;11.428;2023-04-25T08:27:15;4.10;;;1.33;;
38224;SDS011;24025;48.138;11.428;2023-04-25T08:29:46;4.60;;;1.13;;
38224;SDS011;24025;48.138;11.428;2023-04-25T08:32:18;1.55;;;0.68;;
38224;SDS011;24025;48.138;11.428;2023-04-25T08:34:50;3.33;;;1.10;;
38224;SDS011;24025;48.138;11.428;2023-04-25T08:37:25;3.35;;;1.00;;
38224;SDS011;24025;48.138;11.428;2023-04-25T08:39:56;6.40;;;1.00;;
38224;SDS011;24025;48.138;11.428;2023-04-25T08:42:28;1.98;;;0.85;;
38224;SDS011;24025;48.138;11.428;2023-04-25T08:45:02;4.10;;;0.93;;
38224;SDS011;24025;48.138;11.428;2023-04-25T08:47:38;3.60;;;1.00;;
38224;SDS011;24025;48.138;11.428;2023-04-25T08:50:11;3.38;;;0.63;;
38224;SDS011;24025;48.138;11.428;2023-04-25T08:52:43;1.65;;;0.65;;
38224;SDS011;24025;48.138;11.428;2023-04-25T08:55:16;2.65;;;1.00;;
38224;SDS011;24025;48.138;11.428;2023-04-25T08:57:48;2.20;;;0.60;;
38224;SDS011;24025;48.138;11.428;2023-04-25T09:00:21;1.90;;;0.80;;
38224;SDS011;24025;48.138;11.428;2023-04-25T09:02:53;4.90;;;0.75;;
38224;SDS011;24025;48.138;11.428;2023-04-25T09:05:26;1.17;;;0.93;;
38224;SDS011;24025;48.138;11.428;2023-04-25T09:08:00;1.63;;;0.70;;
38224;SDS011;24025;48.138;11.428;2023-04-25T09:10:32;2.75;;;0.82;;
38224;SDS011;24025;48.138;11.428;2023-04-25T09:13:07;2.50;;;1.10;;
38224;SDS011;24025;48.138;11.428;2023-04-25T09:15:47;2.42;;;1.00;;
38224;SDS011;24025;48.138;11.428;2023-04-25T09:18:24;2.88;;;1.00;;
38224;SDS011;24025;48.138;11.428;2023-04-25T09:21:07;1.55;;;0.57;;
38224;SDS011;24025;48.138;11.428;2023-04-25T09:23:46;2.25;;;0.68;;
38224;SDS011;24025;48.138;11.428;2023-04-25T09:26:20;0.98;;;0.50;;
38224;SDS011;24025;48.138;11.428;2023-04-25T09:29:05;1.95;;;0.60;;
38224;SDS011;24025;48.138;11.428;2023-04-25T09:31:38;2.85;;;0.95;;
38224;SDS011;24025;48.138;11.428;2023-04-25T09:34:10;3.20;;;0.63;;
38224;SDS011;24025;48.138;11.428;2023-04-25T09:36:46;3.15;;;0.60;;
38224;SDS011;24025;48.138;11.428;2023-04-25T09:39:18;3.88;;;0.80;;
38224;SDS011;24025;48.138;11.428;2023-04-25T09:41:55;5.13;;;0.70;;
38224;SDS011;24025;48.138;11.428;2023-04-25T09:44:28;1.77;;;0.60;;
38224;SDS011;24025;48.138;11.428;2023-04-25T09:46:59;3.30;;;1.00;;
38224;SDS011;24025;48.138;11.428;2023-04-25T09:49:31;1.38;;;0.63;;
38224;SDS011;24025;48.138;11.428;2023-04-25T09:52:02;2.95;;;1.52;;
38224;SDS011;24025;48.138;11.428;2023-04-25T09:54:34;1.70;;;0.68;;
38224;SDS011;24025;48.138;11.428;2023-04-25T09:57:13;4.72;;;0.85;;
38224;SDS011;24025;48.138;11.428;2023-04-25T09:59:49;4.38;;;0.85;;
38224;SDS011;24025;48.138;11.428;2023-04-25T10:02:22;2.38;;;0.90;;
38224;SDS011;24025;48.138;11.428;2023-04-25T10:04:57;2.08;;;0.90;;
38224;SDS011;24025;48.138;11.428;2023-04-25T10:07:31;1.13;;;0.73;;
38224;SDS011;24025;48.138;11.428;2023-04-25T10:10:05;2.08;;;0.70;;
38224;SDS011;24025;48.138;11.428;2023-04-25T10:15:10;1.25;;;0.60;;
38224;SDS011;24025;48.138;11.428;2023-04-25T10:17:43;1.60;;;0.70;;
38224;SDS011;24025;48.138;11.428;2023-04-25T10:20:15;2.00;;;0.70;;
38224;SDS011;24025;48.138;11.428;2023-04-25T10:22:47;2.03;;;0.70;;
38224;SDS011;24025;48.138;11.428;2023-04-25T10:25:25;1.13;;;0.50;;
38224;SDS011;24025;48.138;11.428;2023-04-25T10:27:57;3.90;;;0.57;;
38224;SDS011;24025;48.138;11.428;2023-04-25T10:30:30;4.10;;;0.63;;
38224;SDS011;24025;48.138;11.428;2023-04-25T10:33:03;3.20;;;0.70;;
38224;SDS011;24025;48.138;11.428;2023-04-25T10:35:49;0.60;;;0.45;;
38224;SDS011;24025;48.138;11.428;2023-04-25T10:38:21;2.85;;;0.43;;
38224;SDS011;24025;48.138;11.428;2023-04-25T10:41:05;1.65;;;0.38;;
38224;SDS011;24025;48.138;11.428;2023-04-25T10:43:40;1.85;;;0.55;;
38224;SDS011;24025;48.138;11.428;2023-04-25T10:51:31;2.88;;;0.82;;
38224;SDS011;24025;48.138;11.428;2023-04-25T10:54:21;4.25;;;1.15;;
38224;SDS011;24025;48.138;11.428;2023-04-25T10:56:54;3.72;;;0.80;;
38224;SDS011;24025;48.138;11.428;2023-04-25T10:59:26;3.97;;;1.20;;
38224;SDS011;24025;48.138;11.428;2023-04-25T11:01:59;1.15;;;0.60;;
38224;SDS011;24025;48.138;11.428;2023-04-25T11:04:42;1.55;;;0.60;;
38224;SDS011;24025;48.138;11.428;2023-04-25T11:10:32;3.95;;;0.68;;
38224;SDS011;24025;48.138;11.428;2023-04-25T11:13:06;1.95;;;0.32;;
38224;SDS011;24025;48.138;11.428;2023-04-25T11:15:37;0.52;;;0.40;;
38224;SDS011;24025;48.138;11.428;2023-04-25T11:18:09;2.05;;;0.60;;
38224;SDS011;24025;48.138;11.428;2023-04-25T11:20:41;1.52;;;0.50;;
38224;SDS011;24025;48.138;11.428;2023-04-25T11:23:15;2.50;;;0.55;;
38224;SDS011;24025;48.138;11.428;2023-04-25T11:25:46;1.55;;;0.73;;
38224;SDS011;24025;48.138;11.428;2023-04-25T11:28:22;1.23;;;0.50;;
38224;SDS011;24025;48.138;11.428;2023-04-25T11:30:56;3.42;;;0.85;;
38224;SDS011;24025;48.138;11.428;2023-04-25T11:33:28;0.75;;;0.40;;
38224;SDS011;24025;48.138;11.428;2023-04-25T11:35:59;3.47;;;0.88;;
38224;SDS011;24025;48.138;11.428;2023-04-25T11:38:31;2.28;;;0.70;;
38224;SDS011;24025;48.138;11.428;2023-04-25T11:41:03;3.00;;;0.50;;
38224;SDS011;24025;48.138;11.428;2023-04-25T11:43:34;2.65;;;0.40;;
38224;SDS011;24025;48.138;11.428;2023-04-25T11:46:06;3.55;;;0.65;;
38224;SDS011;24025;48.138;11.428;2023-04-25T11:48:40;1.23;;;0.50;;
38224;SDS011;24025;48.138;11.428;2023-04-25T11:51:13;0.80;;;0.30;;
38224;SDS011;24025;48.138;11.428;2023-04-25T11:56:17;1.00;;;0.30;;
38224;SDS011;24025;48.138;11.428;2023-04-25T11:58:58;0.70;;;0.30;;
38224;SDS011;24025;48.138;11.428;2023-04-25T12:01:35;1.33;;;0.30;;
38224;SDS011;24025;48.138;11.428;2023-04-25T12:06:49;0.50;;;0.30;;
38224;SDS011;24025;48.138;11.428;2023-04-25T12:09:29;1.58;;;0.30;;
38224;SDS011;24025;48.138;11.428;2023-04-25T12:12:02;0.50;;;0.40;;
38224;SDS011;24025;48.138;11.428;2023-04-25T12:14:35;0.50;;;0.35;;
38224;SDS011;24025;48.138;11.428;2023-04-25T12:17:07;1.63;;;0.47;;
38224;SDS011;24025;48.138;11.428;2023-04-25T12:19:40;1.05;;;0.40;;
38224;SDS011;24025;48.138;11.428;2023-04-25T12:22:22;1.05;;;0.50;;
38224;SDS011;24025;48.138;11.428;2023-04-25T12:24:55;0.55;;;0.40;;
38224;SDS011;24025;48.138;11.428;2023-04-25T12:27:30;1.92;;;0.30;;
38224;SDS011;24025;48.138;11.428;2023-04-25T12:30:03;1.25;;;0.50;;
38224;SDS011;24025;48.138;11.428;2023-04-25T12:32:35;0.30;;;0.28;;
38224;SDS011;24025;48.138;11.428;2023-04-25T12:35:07;0.20;;;0.20;;
38224;SDS011;24025;48.138;11.428;2023-04-25T12:37:39;0.40;;;0.17;;
38224;SDS011;24025;48.138;11.428;2023-04-25T12:40:11;0.80;;;0.30;;
38224;SDS011;24025;48.138;11.428;2023-04-25T12:42:42;0.32;;;0.30;;
38224;SDS011;24025;48.138;11.428;2023-04-25T12:45:14;1.13;;;0.73;;
38224;SDS011;24025;48.138;11.428;2023-04-25T12:47:46;1.95;;;0.30;;
38224;SDS011;24025;48.138;11.428;2023-04-25T12:50:17;1.75;;;0.30;;
38224;SDS011;24025;48.138;11.428;2023-04-25T12:52:49;0.28;;;0.20;;
38224;SDS011;24025;48.138;11.428;2023-04-25T12:55:21;0.20;;;0.10;;
38224;SDS011;24025;48.138;11.428;2023-04-25T12:57:52;0.32;;;0.20;;
38224;SDS011;24025;48.138;11.428;2023-04-25T13:00:24;0.20;;;0.20;;
38224;SDS011;24025;48.138;11.428;2023-04-25T13:02:56;0.20;;;0.20;;
38224;SDS011;24025;48.138;11.428;2023-04-25T13:05:27;0.32;;;0.20;;
38224;SDS011;24025;48.138;11.428;2023-04-25T13:07:59;0.50;;;0.30;;
38224;SDS011;24025;48.138;11.428;2023-04-25T13:10:30;0.87;;;0.20;;
38224;SDS011;24025;48.138;11.428;2023-04-25T13:13:02;0.80;;;0.43;;
38224;SDS011;24025;48.138;11.428;2023-04-25T13:15:34;0.32;;;0.22;;
38224;SDS011;24025;48.138;11.428;2023-04-25T13:18:06;0.47;;;0.30;;
38224;SDS011;24025;48.138;11.428;2023-04-25T13:20:38;0.82;;;0.28;;
38224;SDS011;24025;48.138;11.428;2023-04-25T13:23:09;0.93;;;0.43;;
38224;SDS011;24025;48.138;11.428;2023-04-25T13:25:41;2.47;;;0.40;;
38224;SDS011;24025;48.138;11.428;2023-04-25T13:28:13;0.20;;;0.20;;
38224;SDS011;24025;48.138;11.428;2023-04-25T13:30:45;0.35;;;0.20;;
38224;SDS011;24025;48.138;11.428;2023-04-25T13:33:17;1.40;;;0.30;;
38224;SDS011;24025;48.138;11.428;2023-04-25T13:35:49;0.50;;;0.20;;
38224;SDS011;24025;48.138;11.428;2023-04-25T13:38:25;0.65;;;0.30;;
38224;SDS011;24025;48.138;11.428;2023-04-25T13:40:56;1.30;;;0.43;;
38224;SDS011;24025;48.138;11.428;2023-04-25T13:43:28;0.43;;;0.20;;
38224;SDS011;24025;48.138;11.428;2023-04-25T13:45:59;2.08;;;0.50;;
38224;SDS011;24025;48.138;11.428;2023-04-25T13:48:31;0.30;;;0.25;;
38224;SDS011;24025;48.138;11.428;2023-04-25T13:51:03;0.63;;;0.45;;
38224;SDS011;24025;48.138;11.428;2023-04-25T13:53:34;0.80;;;0.33;;
38224;SDS011;24025;48.138;11.428;2023-04-25T13:56:06;6.47;;;0.43;;
38224;SDS011;24025;48.138;11.428;2023-04-25T13:58:37;1.45;;;0.10;;
38224;SDS011;24025;48.138;11.428;2023-04-25T14:01:09;0.50;;;0.20;;
38224;SDS011;24025;48.138;11.428;2023-04-25T14:03:40;0.20;;;0.20;;
38224;SDS011;24025;48.138;11.428;2023-04-25T14:08:44;0.50;;;0.43;;
38224;SDS011;24025;48.138;11.428;2023-04-25T14:11:16;0.30;;;0.10;;
38224;SDS011;24025;48.138;11.428;2023-04-25T14:13:49;0.30;;;0.20;;
38224;SDS011;24025;48.138;11.428;2023-04-25T14:16:21;0.47;;;0.30;;
38224;SDS011;24025;48.138;11.428;2023-04-25T14:18:54;0.55;;;0.40;;
38224;SDS011;24025;48.138;11.428;2023-04-25T14:21:26;0.10;;;0.10;;
38224;SDS011;24025;48.138;11.428;2023-04-25T14:23:59;0.30;;;0.10;;
38224;SDS011;24025;48.138;11.428;2023-04-25T14:26:30;0.82;;;0.30;;
38224;SDS011;24025;48.138;11.428;2023-04-25T14:29:03;0.50;;;0.30;;
38224;SDS011;24025;48.138;11.428;2023-04-25T14:31:36;0.20;;;0.10;;
38224;SDS011;24025;48.138;11.428;2023-04-25T14:34:08;0.13;;;0.10;;
38224;SDS011;24025;48.138;11.428;2023-04-25T14:36:39;0.28;;;0.10;;
38224;SDS011;24025;48.138;11.428;2023-04-25T14:39:12;0.90;;;0.17;;
38224;SDS011;24025;48.138;11.428;2023-04-25T14:41:45;1.17;;;0.20;;
38224;SDS011;24025;48.138;11.428;2023-04-25T14:44:16;2.47;;;0.17;;
38224;SDS011;24025;48.138;11.428;2023-04-25T14:46:48;0.60;;;0.15;;
38224;SDS011;24025;48.138;11.428;2023-04-25T14:49:22;0.30;;;0.10;;
38224;SDS011;24025;48.138;11.428;2023-04-25T14:51:54;0.30;;;0.22;;
38224;SDS011;24025;48.138;11.428;2023-04-25T14:54:26;0.38;;;0.20;;
38224;SDS011;24025;48.138;11.428;2023-04-25T14:56:57;1.08;;;0.30;;
38224;SDS011;24025;48.138;11.428;2023-04-25T14:59:29;0.38;;;0.32;;
38224;SDS011;24025;48.138;11.428;2023-04-25T15:02:00;0.35;;;0.30;;
38224;SDS011;24025;48.138;11.428;2023-04-25T15:04:32;2.10;;;0.32;;
38224;SDS011;24025;48.138;11.428;2023-04-25T15:07:04;0.20;;;0.20;;
38224;SDS011;24025;48.138;11.428;2023-04-25T15:09:36;1.15;;;0.30;;
38224;SDS011;24025;48.138;11.428;2023-04-25T15:12:07;0.35;;;0.30;;
38224;SDS011;24025;48.138;11.428;2023-04-25T15:14:39;0.32;;;0.30;;
38224;SDS011;24025;48.138;11.428;2023-04-25T15:17:11;0.73;;;0.40;;
38224;SDS011;24025;48.138;11.428;2023-04-25T15:19:45;0.75;;;0.50;;
38224;SDS011;24025;48.138;11.428;2023-04-25T15:22:16;1.02;;;0.40;;
38224;SDS011;24025;48.138;11.428;2023-04-25T15:24:48;0.75;;;0.40;;
38224;SDS011;24025;48.138;11.428;2023-04-25T15:27:19;0.98;;;0.30;;
38224;SDS011;24025;48.138;11.428;2023-04-25T15:29:54;1.35;;;0.30;;
38224;SDS011;24025;48.138;11.428;2023-04-25T15:32:26;0.73;;;0.38;;
38224;SDS011;24025;48.138;11.428;2023-04-25T15:34:57;1.27;;;0.47;;